Celine — HBEF — position and weather

sailwx.info

Track history (hours):
 
Tides and Currents Weather Stations Pressure Air Temp Water Temp Dewpoint Dewpoint Depression Visibility Wind Speed Wind Dir Waves Ship Positions

Celine

Last reported at 2016-Dec-03 00:33 UTC. Time now 2016-Dec-10 22:22 UTC.
Position N 37°58' E 024°39'.

Length 129 m; draft 7.7 m.

Type: Cargo ship. MMSI: 269057000.

Date/timePositionNaut miles runAvg speedWind from/ knotsBaromVisibWave heightAir tempDewpointWater temp
2016-Dec-03 00:33N 37°58' E 024°39'1212.6
2016-Dec-02 23:33N 37°46' E 024°34'47710.6
2016-Dec-01 02:33N 36°29' E 014°43'1111.3
2016-Dec-01 01:34N 36°30' E 014°30'1111.5
2016-Dec-01 00:34N 36°33' E 014°16'1211.6
2016-Nov-30 23:34N 36°36' E 014°02'1211.6
2016-Nov-30 22:34N 36°38' E 013°48'  
2016-Nov-27 23:09N 36°23' W 002°07'1212.7
2016-Nov-27 22:12N 36°21' W 002°22'912.4
2016-Nov-27 21:28N 36°19' W 002°33'13313.4
2016-Nov-27 11:33N 35°60' W 005°16'257 9.7
2016-Nov-26 09:13N 38°06' W 009°56'812.1
2016-Nov-26 08:33N 38°14' W 009°58'1212.2
2016-Nov-26 07:33N 38°26' W 010°02'1212.5
2016-Nov-26 06:34N 38°38' W 010°05'1312.5
2016-Nov-26 05:34N 38°50' W 010°05'1212.4
2016-Nov-26 04:33N 39°03' W 010°06'1312.5
2016-Nov-26 03:33N 39°15' W 010°06'  
2016-Nov-23 19:22N 49°11' W 005°05'1112.6
2016-Nov-23 18:32N 49°16' W 004°50'5412.3
2016-Nov-23 14:10N 49°43' W 003°40'711.5
2016-Nov-23 13:33N 49°47' W 003°30'1211.5
2016-Nov-23 12:34N 49°53' W 003°15'1211.9
2016-Nov-23 11:33N 49°59' W 002°59'1212.4
2016-Nov-23 10:33N 50°02' W 002°41'2813.8
2016-Nov-23 08:33N 50°09' W 001°59'1413.8
2016-Nov-23 07:33N 50°13' W 001°38'1312.9
2016-Nov-23 06:33N 50°17' W 001°19'3310.8
2016-Nov-23 03:33N 50°24' W 000°30'1010.3
2016-Nov-23 02:33N 50°27' W 000°14'2211.0
2016-Nov-23 00:34N 50°32' E 000°19'  
Track history (hours):
 
Tides and Currents Weather Stations Pressure Air Temp Water Temp Dewpoint Dewpoint Depression Visibility Wind Speed Wind Dir Waves Ship Positions

Celine

Last reported at 2016-Dec-03 00:33 UTC. Time now 2016-Dec-10 22:22 UTC.
Position N 37°58' E 024°39'.

Length 129 m; draft 7.7 m.

Type: Cargo ship. MMSI: 269057000.

Date/timePositionNaut miles runAvg speedWind from/ knotsBaromVisibWave heightAir tempDewpointWater temp
2016-Dec-03 00:33N 37°58' E 024°39'1212.6
2016-Dec-02 23:33N 37°46' E 024°34'47710.6
2016-Dec-01 02:33N 36°29' E 014°43'1111.3
2016-Dec-01 01:34N 36°30' E 014°30'1111.5
2016-Dec-01 00:34N 36°33' E 014°16'1211.6
2016-Nov-30 23:34N 36°36' E 014°02'1211.6
2016-Nov-30 22:34N 36°38' E 013°48'  
2016-Nov-27 23:09N 36°23' W 002°07'1212.7
2016-Nov-27 22:12N 36°21' W 002°22'912.4
2016-Nov-27 21:28N 36°19' W 002°33'13313.4
2016-Nov-27 11:33N 35°60' W 005°16'257 9.7
2016-Nov-26 09:13N 38°06' W 009°56'812.1
2016-Nov-26 08:33N 38°14' W 009°58'1212.2
2016-Nov-26 07:33N 38°26' W 010°02'1212.5
2016-Nov-26 06:34N 38°38' W 010°05'1312.5
2016-Nov-26 05:34N 38°50' W 010°05'1212.4
2016-Nov-26 04:33N 39°03' W 010°06'1312.5
2016-Nov-26 03:33N 39°15' W 010°06'  
2016-Nov-23 19:22N 49°11' W 005°05'1112.6
2016-Nov-23 18:32N 49°16' W 004°50'5412.3
2016-Nov-23 14:10N 49°43' W 003°40'711.5
2016-Nov-23 13:33N 49°47' W 003°30'1211.5
2016-Nov-23 12:34N 49°53' W 003°15'1211.9
2016-Nov-23 11:33N 49°59' W 002°59'1212.4
2016-Nov-23 10:33N 50°02' W 002°41'2813.8
2016-Nov-23 08:33N 50°09' W 001°59'1413.8
2016-Nov-23 07:33N 50°13' W 001°38'1312.9
2016-Nov-23 06:33N 50°17' W 001°19'3310.8
2016-Nov-23 03:33N 50°24' W 000°30'1010.3
2016-Nov-23 02:33N 50°27' W 000°14'2211.0
2016-Nov-23 00:34N 50°32' E 000°19'  

Dump ship's entire track history